Relatrios de METAR prximas

 

LPAR - Alverca, Portugal
Distance from station: S 38km
Actualizado: 11/12/2023 11:00
Few Clouds
Few Clouds
 Vento de varies
Vento: varies 4 km/h
Temperatura: 14°C
Ponto de Orvalho: 14°C
Humidade: 100%
Barmetro: 1024 hPa
Nuvens: Few Clouds
Visibilidade: 10 km
Cloud details: Few Clouds 762 m
2023/12/11 11:00 LPAR 111100Z VRB02KT 9999 FEW025 14/14 Q1024
LPPT - Lisbon/Portela, Portugal
Distance from station: S 52km
Actualizado: 11/12/2023 11:30
Few Clouds
Few Clouds
 Vento de varies
Vento: varies 7 km/h
Temperatura: 15°C
Ponto de Orvalho: 13°C
Humidade: 88%
Barmetro: 1023 hPa
Nuvens: Few Clouds
Visibilidade: 10 km
Cloud details: Few Clouds 610 m
2023/12/11 11:30 LPPT 111130Z VRB04KT 9999 FEW020 15/13 Q1023
 
LPST - Sintra/Granja (a, Portugal
Distance from station: SSO 53km
Actualizado: 11/12/2023 11:00
Few Clouds
Few Clouds
 Vento de S
Vento: S 22 km/h
Temperatura: 17°C
Ponto de Orvalho: 14°C
Humidade: 83%
Barmetro: 1023 hPa
Nuvens: Few Clouds
Visibilidade: 10 km
Cloud details: Few Clouds 610 m
2023/12/11 11:00 LPST 111100Z 17012KT 9999 FEW020 17/14 Q1023
LPMT - Montijo (por-Afb, Portugal
Distance from station: S 59km
Actualizado: 11/12/2023 11:00
Cu Limpo
Cu Limpo
 Vento de N
Vento: N 11 km/h
Temperatura: 15°C
Ponto de Orvalho: 13°C
Humidade: 88%
Barmetro: 1023 hPa
Resumo: Cu Limpo
Visibilidade: greater than 10 km
2023/12/11 11:00 LPMT 111100Z 01006KT CAVOK 15/13 Q1023
 
LPCS - Cascais, Portugal
Distance from station: SSO 63km
Actualizado: 11/12/2023 11:30
Muito Nublado
Muito Nublado
 Vento de SSE
Vento: SSE 9 km/h
Temperatura: 17°C
Ponto de Orvalho: 15°C
Humidade: 88%
Barmetro: 1023 hPa
Nuvens: Muito Nublado
Visibilidade: 10 km
Cloud details: Parc. Nublado 305 m
Muito Nublado 457 m
2023/12/11 11:30 LPCS 111130Z 15005KT 020V190 9999 SCT010 BKN015 17/15 Q1023
LPMR - Monte Real(Por-A, Portugal
Distance from station: N 67km
Actualizado: 11/12/2023 11:00
Few Clouds
Few Clouds
 Vento de SE
Vento: SE 19 km/h
Temperatura: 16°C
Ponto de Orvalho: 13°C
Humidade: 83%
Barmetro: 1023 hPa
Nuvens: Few Clouds
Visibilidade: 10 km
Cloud details: Few Clouds 1067 m
2023/12/11 11:00 LPMR 111100Z 13010KT 9999 FEW035 16/13 Q1023